createdAt,value
2019-03-25T00:01:25.083Z,13.20
2019-03-25T00:06:28.486Z,11.07
2019-03-25T00:11:31.887Z,11.30
2019-03-25T00:16:35.274Z,11.30
2019-03-25T00:21:38.667Z,11.27
2019-03-25T00:26:42.059Z,11.17
2019-03-25T00:31:45.460Z,10.40
2019-03-25T00:36:48.840Z,11.00
2019-03-25T00:41:52.223Z,9.60
2019-03-25T00:46:55.612Z,10.80
2019-03-25T00:51:59.089Z,9.60
2019-03-25T00:57:02.485Z,10.43
2019-03-25T01:02:05.875Z,11.83
2019-03-25T01:07:09.276Z,11.53
2019-03-25T01:12:12.647Z,9.37
2019-03-25T01:17:16.032Z,8.47
2019-03-25T01:22:19.433Z,9.60
2019-03-25T01:27:22.808Z,7.73
2019-03-25T01:32:26.206Z,8.87
2019-03-25T01:37:29.601Z,8.10
2019-03-25T01:42:32.987Z,9.03
2019-03-25T01:47:36.378Z,10.37
2019-03-25T01:52:39.759Z,9.27
2019-03-25T01:57:43.158Z,9.47
2019-03-25T02:02:46.545Z,11.47
2019-03-25T02:07:50.102Z,9.50
2019-03-25T02:12:53.496Z,9.93
2019-03-25T02:17:56.895Z,11.00
2019-03-25T02:23:00.490Z,9.00
2019-03-25T02:28:04.055Z,11.10
2019-03-25T02:33:07.445Z,9.77
2019-03-25T02:38:10.832Z,10.03
2019-03-25T02:43:14.216Z,11.00
2019-03-25T02:48:17.608Z,10.70
2019-03-25T02:53:20.992Z,12.23
2019-03-25T02:58:24.419Z,11.30
2019-03-25T03:03:27.790Z,9.83
2019-03-25T03:08:31.178Z,11.67
2019-03-25T03:13:34.574Z,10.23
2019-03-25T03:18:37.950Z,8.70
2019-03-25T03:23:41.328Z,11.10
2019-03-25T03:28:44.749Z,10.67
2019-03-25T03:33:48.182Z,10.57
2019-03-25T03:38:51.556Z,8.90
2019-03-25T03:43:54.939Z,10.20
2019-03-25T03:48:58.328Z,8.30
2019-03-25T03:54:01.967Z,10.10
2019-03-25T03:59:05.442Z,7.07
2019-03-25T04:04:08.859Z,7.20
2019-03-25T04:09:12.241Z,8.30
2019-03-25T04:14:15.628Z,7.47
2019-03-25T04:19:19.009Z,7.97
2019-03-25T04:24:22.392Z,8.57
2019-03-25T04:29:25.771Z,7.30
2019-03-25T04:34:29.164Z,9.03
2019-03-25T04:39:32.552Z,6.17
2019-03-25T04:44:35.951Z,9.23
2019-03-25T04:49:39.342Z,7.40
2019-03-25T04:54:42.783Z,7.93
2019-03-25T04:59:46.163Z,7.53
2019-03-25T05:04:49.553Z,5.77
2019-03-25T05:09:52.976Z,8.90
2019-03-25T05:14:56.361Z,6.80
2019-03-25T05:19:59.731Z,8.20
2019-03-25T05:25:03.556Z,6.87
2019-03-25T05:30:07.477Z,6.63
2019-03-25T05:35:12.228Z,7.37
2019-03-25T05:40:15.611Z,6.30
2019-03-25T05:45:18.991Z,4.73
2019-03-25T05:50:22.383Z,6.33
2019-03-25T05:55:25.766Z,6.70
2019-03-25T06:00:30.811Z,5.87
2019-03-25T06:05:34.192Z,7.00
2019-03-25T06:10:37.576Z,5.80
2019-03-25T06:15:40.959Z,6.53
2019-03-25T06:20:44.356Z,4.90
2019-03-25T06:25:47.739Z,4.50
2019-03-25T06:30:51.133Z,4.33
2019-03-25T06:35:54.517Z,4.40
2019-03-25T06:40:57.907Z,4.47
2019-03-25T06:46:01.483Z,3.30
2019-03-25T06:51:04.919Z,4.37
2019-03-25T06:56:08.314Z,3.90
2019-03-25T07:01:11.715Z,3.30
2019-03-25T07:06:15.108Z,2.80
2019-03-25T07:11:18.663Z,3.97
2019-03-25T07:16:22.055Z,3.70
2019-03-25T07:21:25.449Z,2.67
2019-03-25T07:26:28.835Z,2.87
2019-03-25T07:31:32.220Z,2.57
2019-03-25T07:36:35.620Z,2.50
2019-03-25T07:41:39.016Z,3.23
2019-03-25T07:46:42.399Z,2.73
2019-03-25T07:51:45.793Z,2.17
2019-03-25T07:56:49.198Z,2.03
2019-03-25T08:01:52.579Z,1.80
2019-03-25T08:06:55.968Z,1.87
2019-03-25T08:11:59.343Z,2.17
2019-03-25T08:17:02.715Z,1.43
2019-03-25T08:22:06.092Z,1.90
2019-03-25T08:27:09.484Z,2.20
2019-03-25T08:32:12.879Z,1.97
2019-03-25T08:37:16.272Z,1.57
2019-03-25T08:42:19.660Z,1.77
2019-03-25T08:47:23.044Z,1.40
2019-03-25T08:52:26.432Z,2.50
2019-03-25T08:57:29.887Z,2.03
2019-03-25T09:02:33.275Z,2.90
2019-03-25T09:07:36.733Z,1.60
2019-03-25T09:12:40.130Z,2.63
2019-03-25T09:17:43.528Z,1.80
2019-03-25T09:22:48.095Z,2.63
2019-03-25T09:27:51.484Z,2.57
2019-03-25T09:32:54.892Z,2.17
2019-03-25T09:37:58.283Z,1.70
2019-03-25T09:43:01.675Z,2.70
2019-03-25T09:48:05.273Z,2.30
2019-03-25T09:53:08.665Z,2.37
2019-03-25T09:58:12.055Z,2.47
2019-03-25T10:03:15.449Z,2.33
2019-03-25T10:08:18.823Z,2.37
2019-03-25T10:13:22.216Z,2.40
2019-03-25T10:18:25.612Z,3.03
2019-03-25T10:23:29.073Z,2.13
2019-03-25T10:28:32.491Z,2.17
2019-03-25T10:33:35.879Z,2.53
2019-03-25T10:38:39.341Z,2.27
2019-03-25T10:43:42.737Z,2.40
2019-03-25T10:48:46.115Z,1.77
2019-03-25T10:53:50.411Z,2.47
2019-03-25T10:58:58.098Z,2.17
2019-03-25T11:03:58.891Z,2.40
2019-03-25T11:09:02.278Z,2.80
2019-03-25T11:14:05.685Z,2.90
2019-03-25T11:19:09.074Z,2.20
2019-03-25T11:24:12.471Z,1.50
2019-03-25T11:29:15.855Z,2.00
2019-03-25T11:34:19.277Z,2.30
2019-03-25T11:39:22.643Z,2.07
2019-03-25T11:44:26.036Z,1.80
2019-03-25T11:49:29.431Z,1.73
2019-03-25T11:54:32.855Z,2.77
2019-03-25T11:59:36.240Z,1.40
2019-03-25T12:04:39.627Z,1.97
2019-03-25T12:09:43.029Z,1.93
2019-03-25T12:14:46.411Z,1.80
2019-03-25T12:19:49.791Z,2.00
2019-03-25T12:24:53.179Z,1.87
2019-03-25T12:29:56.568Z,1.90
2019-03-25T12:34:59.957Z,1.70
2019-03-25T12:40:03.924Z,1.93
2019-03-25T12:45:08.067Z,2.07
2019-03-25T12:50:11.755Z,1.70
2019-03-25T12:55:15.255Z,1.53
2019-03-25T13:00:21.726Z,2.27
2019-03-25T13:05:25.127Z,1.40
2019-03-25T13:10:28.502Z,1.70
2019-03-25T13:15:31.887Z,1.97
2019-03-25T13:20:35.280Z,2.20
2019-03-25T13:25:39.633Z,1.60
2019-03-25T13:30:43.142Z,1.37
2019-03-25T13:35:46.522Z,2.07
2019-03-25T13:40:49.910Z,1.80
2019-03-25T13:45:53.296Z,1.53
2019-03-25T13:50:56.693Z,1.13
2019-03-25T13:56:00.078Z,2.20
2019-03-25T14:01:03.458Z,1.20
2019-03-25T14:06:06.842Z,1.23
2019-03-25T14:11:10.219Z,1.07
2019-03-25T14:16:13.607Z,1.20
2019-03-25T14:21:16.990Z,1.37
2019-03-25T14:26:20.374Z,0.77
2019-03-25T14:31:23.768Z,0.90
2019-03-25T14:36:27.148Z,0.87
2019-03-25T14:41:30.699Z,0.90
2019-03-25T14:46:34.082Z,0.60
2019-03-25T14:51:37.458Z,0.90
2019-03-25T14:56:40.859Z,0.97
2019-03-25T15:01:44.244Z,1.20
2019-03-25T15:06:47.654Z,1.20
2019-03-25T15:11:51.040Z,1.00
2019-03-25T15:16:54.414Z,1.20
2019-03-25T15:21:57.828Z,0.90
2019-03-25T15:27:01.248Z,0.80
2019-03-25T15:32:04.658Z,0.70
2019-03-25T15:37:08.045Z,0.80
2019-03-25T15:42:11.442Z,0.80
2019-03-25T15:47:15.030Z,0.70
2019-03-25T15:52:18.430Z,0.57
2019-03-25T15:57:21.818Z,0.50
2019-03-25T16:02:25.196Z,0.60
2019-03-25T16:07:28.579Z,0.60
2019-03-25T16:12:31.967Z,0.57
2019-03-25T16:17:35.350Z,1.07
2019-03-25T16:22:38.739Z,0.83
2019-03-25T16:27:42.119Z,0.50
2019-03-25T16:32:45.495Z,0.63
2019-03-25T16:37:48.875Z,0.80
2019-03-25T16:42:52.264Z,0.70
2019-03-25T16:47:55.639Z,0.50
2019-03-25T16:52:59.026Z,0.70
2019-03-25T16:58:02.404Z,0.60
2019-03-25T17:03:05.798Z,0.50
2019-03-25T17:08:09.180Z,0.50
2019-03-25T17:13:12.551Z,0.60
2019-03-25T17:18:15.934Z,0.87
2019-03-25T17:23:19.320Z,0.80
2019-03-25T17:28:22.771Z,1.00
2019-03-25T17:33:26.186Z,0.90
2019-03-25T17:38:29.584Z,0.80
2019-03-25T17:43:32.959Z,0.97
2019-03-25T17:48:36.359Z,1.40
2019-03-25T17:53:39.743Z,0.50
2019-03-25T17:58:43.121Z,1.00
2019-03-25T18:03:46.512Z,1.00
2019-03-25T18:08:49.886Z,0.80
2019-03-25T18:13:53.262Z,0.70
2019-03-25T18:18:56.800Z,0.97
2019-03-25T18:24:00.183Z,0.63
2019-03-25T18:29:03.635Z,1.00
2019-03-25T18:34:07.088Z,0.80
2019-03-25T18:39:10.475Z,0.87
2019-03-25T18:44:13.872Z,0.87
2019-03-25T18:49:17.283Z,0.73
2019-03-25T18:54:20.672Z,1.00
2019-03-25T18:59:24.146Z,1.03
2019-03-25T19:04:27.576Z,0.87
2019-03-25T19:09:31.152Z,0.90
2019-03-25T19:14:34.608Z,1.00
2019-03-25T19:19:38.075Z,1.00
2019-03-25T19:24:41.460Z,1.27
2019-03-25T19:29:44.869Z,0.90
2019-03-25T19:34:48.226Z,0.80
2019-03-25T19:39:51.640Z,0.77
2019-03-25T19:44:55.144Z,0.80
2019-03-25T19:49:58.533Z,1.10
2019-03-25T19:55:01.941Z,1.13
2019-03-25T20:00:10.100Z,1.37
2019-03-25T20:05:13.577Z,0.83
2019-03-25T20:10:20.061Z,1.00
2019-03-25T20:15:23.535Z,1.07
2019-03-25T20:20:26.991Z,1.03
2019-03-25T20:25:30.447Z,1.03
2019-03-25T20:30:33.923Z,1.20
2019-03-25T20:35:37.364Z,1.13
2019-03-25T20:40:40.848Z,1.00
2019-03-25T20:45:44.345Z,1.23
2019-03-25T20:50:47.725Z,1.20
2019-03-25T20:55:51.184Z,0.97
2019-03-25T21:00:56.146Z,1.53
2019-03-25T21:05:59.592Z,1.00
2019-03-25T21:11:03.507Z,1.20
2019-03-25T21:16:07.086Z,0.60
2019-03-25T21:21:10.554Z,1.53
2019-03-25T21:26:13.974Z,0.83
2019-03-25T21:31:17.355Z,0.90
2019-03-25T21:36:20.872Z,1.30
2019-03-25T21:41:24.320Z,0.90
2019-03-25T21:46:27.743Z,1.77
2019-03-25T21:51:31.215Z,0.90
2019-03-25T21:56:34.608Z,3.17
2019-03-25T22:01:37.993Z,2.47
2019-03-25T22:06:41.381Z,2.00
2019-03-25T22:11:44.753Z,1.30
2019-03-25T22:16:48.130Z,1.73
2019-03-25T22:21:51.539Z,1.13
2019-03-25T22:26:54.957Z,1.63
2019-03-25T22:31:58.319Z,0.83
2019-03-25T22:37:01.793Z,1.17
2019-03-25T22:42:05.193Z,1.13
2019-03-25T22:47:08.568Z,0.70
2019-03-25T22:52:11.962Z,1.23
2019-03-25T22:57:15.335Z,1.10
2019-03-25T23:02:18.712Z,1.17
2019-03-25T23:07:22.094Z,1.10
2019-03-25T23:12:25.468Z,0.80
2019-03-25T23:17:28.851Z,1.60
2019-03-25T23:22:32.227Z,1.43
2019-03-25T23:27:35.624Z,1.63
2019-03-25T23:32:39.000Z,0.77
2019-03-25T23:37:42.396Z,1.90
2019-03-25T23:42:45.775Z,1.77
2019-03-25T23:47:49.184Z,0.87
2019-03-25T23:52:52.569Z,1.10
2019-03-25T23:57:56.024Z,1.97
